^^
Station Historical Data
Daily Summary for December 9, 2017 Units:  Both    English   Metric
« Previous Day
Next Day »
Daily Weekly Monthly Yearly Custom
  High: Low: Average:
Temperature: 88.0 °F /  31.1 °C 61.3 °F /  16.3 °C 75.5 °F /  24.2 °C
Dew Point: 57.7 °F /  14.3 °C 43.5 °F /  6.4 °C 50.7 °F /  10.4 °C
Humidity: 83% 23% 46%
Wind Speed: 12.1mph /  19.5km/h - 2.2mph /  3.5km/h
Wind Gust: 18.0mph /  29km/h - -
Wind- - ESE
Pressure: 30.28 in /  1025.3 hPa 30.12 in /  1019.9 hPa -
Precipitation: 0.00 in /  0 mm    
Historical Graphs
 
 
Tabular Data for December 9, 2017
Time Temperature Dew Point Pressure Wind Wind Speed Wind Gust Humidity Rainfall Rate (Hourly) solar Conditions
00:04 70.2 °F /  21.2 °C 54.1 °F /  12.3 °C 30.27in /  1024.9hPa Calm   3.0mph /  4.8km/h 57% 0.00in /  0mm 0.0 W/m2
00:09 70.0 °F /  21.1 °C 54.5 °F /  12.5 °C 30.27in /  1024.9hPa NE 2.0mph /  3.2km/h 5.0mph /  8km/h 58% 0.00in /  0mm 0.0 W/m2
00:14 69.8 °F /  21 °C 54.9 °F /  12.7 °C 30.27in /  1024.9hPa NNW 0.9mph /  1.4km/h 5.0mph /  8km/h 59% 0.00in /  0mm 0.0 W/m2
00:19 69.6 °F /  20.9 °C 54.7 °F /  12.6 °C 30.27in /  1024.9hPa Calm   4.0mph /  6.4km/h 59% 0.00in /  0mm 0.0 W/m2
00:25 69.4 °F /  20.8 °C 54.5 °F /  12.5 °C 30.27in /  1024.9hPa Calm   1.0mph /  1.6km/h 59% 0.00in /  0mm 0.0 W/m2
00:35 69.1 °F /  20.6 °C 54.7 °F /  12.6 °C 30.27in /  1024.9hPa Calm     60% 0.00in /  0mm 0.0 W/m2
00:40 68.9 °F /  20.5 °C 54.9 °F /  12.7 °C 30.27in /  1024.9hPa Calm   1.0mph /  1.6km/h 61% 0.00in /  0mm 0.0 W/m2
00:45 68.7 °F /  20.4 °C 54.7 °F /  12.6 °C 30.27in /  1024.9hPa Calm   1.0mph /  1.6km/h 61% 0.00in /  0mm 0.0 W/m2
00:50 68.5 °F /  20.3 °C 55.0 °F /  12.8 °C 30.28in /  1025.3hPa Calm   1.0mph /  1.6km/h 62% 0.00in /  0mm 0.0 W/m2
00:55 68.4 °F /  20.2 °C 55.2 °F /  12.9 °C 30.27in /  1024.9hPa Calm   4.0mph /  6.4km/h 63% 0.00in /  0mm 0.0 W/m2
01:05 68.2 °F /  20.1 °C 55.6 °F /  13.1 °C 30.27in /  1024.9hPa ESE 2.0mph /  3.2km/h 3.0mph /  4.8km/h 64% 0.00in /  0mm 0.0 W/m2
01:11 68.0 °F /  20 °C 55.4 °F /  13 °C 30.27in /  1024.9hPa Calm   2.0mph /  3.2km/h 64% 0.00in /  0mm 0.0 W/m2
01:16 67.8 °F /  19.9 °C 55.2 °F /  12.9 °C 30.27in /  1024.9hPa ENE 2.0mph /  3.2km/h 2.0mph /  3.2km/h 64% 0.00in /  0mm 0.0 W/m2
01:21 67.8 °F /  19.9 °C 55.6 °F /  13.1 °C 30.27in /  1024.9hPa Calm   1.0mph /  1.6km/h 65% 0.00in /  0mm 0.0 W/m2
01:26 67.6 °F /  19.8 °C 55.9 °F /  13.3 °C 30.27in /  1024.9hPa Calm   1.0mph /  1.6km/h 66% 0.00in /  0mm 0.0 W/m2
01:30 67.5 °F /  19.7 °C 55.8 °F /  13.2 °C 30.27in /  1024.9hPa Calm     66% 0.00in /  0mm 0.0 W/m2
01:50 66.9 °F /  19.4 °C 55.9 °F /  13.3 °C 30.26in /  1024.6hPa East 2.9mph /  4.7km/h 3.0mph /  4.8km/h 68% 0.00in /  0mm 0.0 W/m2
01:56 66.7 °F /  19.3 °C 55.8 °F /  13.2 °C 30.26in /  1024.6hPa Calm   2.0mph /  3.2km/h 68% 0.00in /  0mm 0.0 W/m2
02:11 66.6 °F /  19.2 °C 56.1 °F /  13.4 °C 30.25in /  1024.3hPa East 0.9mph /  1.4km/h 2.0mph /  3.2km/h 69% 0.00in /  0mm 0.0 W/m2
02:16 66.4 °F /  19.1 °C 55.9 °F /  13.3 °C 30.25in /  1024.3hPa Calm   1.0mph /  1.6km/h 69% 0.00in /  0mm 0.0 W/m2
02:21 66.4 °F /  19.1 °C 56.3 °F /  13.5 °C 30.25in /  1024.3hPa Calm   1.0mph /  1.6km/h 70% 0.00in /  0mm 0.0 W/m2
02:26 66.2 °F /  19 °C 56.1 °F /  13.4 °C 30.25in /  1024.3hPa Calm   2.0mph /  3.2km/h 70% 0.00in /  0mm 0.0 W/m2
02:32 66.0 °F /  18.9 °C 55.9 °F /  13.3 °C 30.25in /  1024.3hPa Calm   3.0mph /  4.8km/h 70% 0.00in /  0mm 0.0 W/m2
02:37 65.8 °F /  18.8 °C 56.1 °F /  13.4 °C 30.25in /  1024.3hPa Calm   1.0mph /  1.6km/h 71% 0.00in /  0mm 0.0 W/m2
02:42 65.8 °F /  18.8 °C 56.1 °F /  13.4 °C 30.25in /  1024.3hPa Calm   3.0mph /  4.8km/h 71% 0.00in /  0mm 0.0 W/m2
02:52 65.7 °F /  18.7 °C 56.3 °F /  13.5 °C 30.24in /  1023.9hPa Calm   3.0mph /  4.8km/h 72% 0.00in /  0mm 0.0 W/m2
02:57 65.7 °F /  18.7 °C 56.3 °F /  13.5 °C 30.24in /  1023.9hPa Calm   1.0mph /  1.6km/h 72% 0.00in /  0mm 0.0 W/m2
03:02 65.7 °F /  18.7 °C 56.3 °F /  13.5 °C 30.24in /  1023.9hPa Calm   1.0mph /  1.6km/h 72% 0.00in /  0mm 0.0 W/m2
03:07 65.5 °F /  18.6 °C 56.7 °F /  13.7 °C 30.24in /  1023.9hPa Calm     73% 0.00in /  0mm 0.0 W/m2
03:13 65.3 °F /  18.5 °C 56.5 °F /  13.6 °C 30.24in /  1023.9hPa Calm     73% 0.00in /  0mm 0.0 W/m2
03:18 65.1 °F /  18.4 °C 56.3 °F /  13.5 °C 30.24in /  1023.9hPa Calm     73% 0.00in /  0mm 0.0 W/m2
03:23 65.1 °F /  18.4 °C 56.7 °F /  13.7 °C 30.24in /  1023.9hPa Calm     74% 0.00in /  0mm 0.0 W/m2
03:33 64.9 °F /  18.3 °C 56.5 °F /  13.6 °C 30.23in /  1023.6hPa Calm     74% 0.00in /  0mm 0.0 W/m2
03:43 64.6 °F /  18.1 °C 56.5 °F /  13.6 °C 30.23in /  1023.6hPa Calm   1.0mph /  1.6km/h 75% 0.00in /  0mm 0.0 W/m2
03:53 64.2 °F /  17.9 °C 56.5 °F /  13.6 °C 30.22in /  1023.2hPa Calm   1.0mph /  1.6km/h 76% 0.00in /  0mm 0.0 W/m2
03:59 64.2 °F /  17.9 °C 56.5 °F /  13.6 °C 30.23in /  1023.6hPa Calm     76% 0.00in /  0mm 0.0 W/m2
04:04 64.0 °F /  17.8 °C 56.3 °F /  13.5 °C 30.23in /  1023.6hPa Calm     76% 0.00in /  0mm 0.0 W/m2
04:09 64.0 °F /  17.8 °C 56.3 °F /  13.5 °C 30.23in /  1023.6hPa Calm   1.0mph /  1.6km/h 76% 0.00in /  0mm 0.0 W/m2
04:14 63.9 °F /  17.7 °C 56.5 °F /  13.6 °C 30.22in /  1023.2hPa Calm     77% 0.00in /  0mm 0.0 W/m2
04:24 63.7 °F /  17.6 °C 56.3 °F /  13.5 °C 30.23in /  1023.6hPa Calm     77% 0.00in /  0mm 0.0 W/m2
04:29 63.3 °F /  17.4 °C 55.9 °F /  13.3 °C 30.23in /  1023.6hPa Calm   1.0mph /  1.6km/h 77% 0.00in /  0mm 0.0 W/m2
04:39 63.1 °F /  17.3 °C 56.1 °F /  13.4 °C 30.22in /  1023.2hPa Calm   1.0mph /  1.6km/h 78% 0.00in /  0mm 0.0 W/m2
04:50 63.0 °F /  17.2 °C 56.3 °F /  13.5 °C 30.23in /  1023.6hPa Calm     79% 0.00in /  0mm 0.0 W/m2
04:55 63.0 °F /  17.2 °C 56.3 °F /  13.5 °C 30.23in /  1023.6hPa Calm     79% 0.00in /  0mm 0.0 W/m2
05:00 62.8 °F /  17.1 °C 56.1 °F /  13.4 °C 30.23in /  1023.6hPa Calm     79% 0.00in /  0mm 0.0 W/m2
05:05 62.8 °F /  17.1 °C 56.1 °F /  13.4 °C 30.23in /  1023.6hPa Calm   1.0mph /  1.6km/h 79% 0.00in /  0mm 0.0 W/m2
05:10 62.8 °F /  17.1 °C 56.5 °F /  13.6 °C 30.22in /  1023.2hPa Calm     80% 0.00in /  0mm 0.0 W/m2
05:16 62.4 °F /  16.9 °C 56.1 °F /  13.4 °C 30.22in /  1023.2hPa Calm     80% 0.00in /  0mm 0.0 W/m2
05:21 62.4 °F /  16.9 °C 56.1 °F /  13.4 °C 30.23in /  1023.6hPa Calm     80% 0.00in /  0mm 0.0 W/m2
05:23 62.4 °F /  16.9 °C 56.1 °F /  13.4 °C 30.22in /  1023.2hPa Calm     80% 0.00in /  0mm 0.0 W/m2
05:29 62.2 °F /  16.8 °C 56.3 °F /  13.5 °C 30.22in /  1023.2hPa Calm     81% 0.00in /  0mm 0.0 W/m2
05:32 62.2 °F /  16.8 °C 56.3 °F /  13.5 °C 30.23in /  1023.6hPa Calm   1.0mph /  1.6km/h 81% 0.00in /  0mm 0.0 W/m2
05:37 62.1 °F /  16.7 °C 56.1 °F /  13.4 °C 30.23in /  1023.6hPa Calm     81% 0.00in /  0mm 0.0 W/m2
05:47 61.9 °F /  16.6 °C 55.9 °F /  13.3 °C 30.23in /  1023.6hPa Calm     81% 0.00in /  0mm 0.0 W/m2
06:02 61.5 °F /  16.4 °C 55.9 °F /  13.3 °C 30.23in /  1023.6hPa Calm     82% 0.00in /  0mm 0.0 W/m2
06:07 61.5 °F /  16.4 °C 55.9 °F /  13.3 °C 30.24in /  1023.9hPa Calm   1.0mph /  1.6km/h 82% 0.00in /  0mm 5.0 W/m2
06:13 61.3 °F /  16.3 °C 55.8 °F /  13.2 °C 30.24in /  1023.9hPa Calm   1.0mph /  1.6km/h 82% 0.00in /  0mm 9.0 W/m2
06:18 61.3 °F /  16.3 °C 56.1 °F /  13.4 °C 30.23in /  1023.6hPa Calm   1.0mph /  1.6km/h 83% 0.00in /  0mm 11.0 W/m2
06:23 61.3 °F /  16.3 °C 56.1 °F /  13.4 °C 30.24in /  1023.9hPa Calm     83% 0.00in /  0mm 12.0 W/m2
06:38 61.3 °F /  16.3 °C 56.1 °F /  13.4 °C 30.25in /  1024.3hPa Calm     83% 0.00in /  0mm 18.0 W/m2
06:43 61.3 °F /  16.3 °C 56.1 °F /  13.4 °C 30.25in /  1024.3hPa Calm   1.0mph /  1.6km/h 83% 0.00in /  0mm 18.0 W/m2
06:48 61.5 °F /  16.4 °C 56.3 °F /  13.5 °C 30.25in /  1024.3hPa Calm   1.0mph /  1.6km/h 83% 0.00in /  0mm 19.0 W/m2
06:53 61.5 °F /  16.4 °C 56.3 °F /  13.5 °C 30.25in /  1024.3hPa Calm     83% 0.00in /  0mm 21.0 W/m2
07:04 62.1 °F /  16.7 °C 56.5 °F /  13.6 °C 30.25in /  1024.3hPa Calm   1.0mph /  1.6km/h 82% 0.00in /  0mm 25.0 W/m2
07:15 63.0 °F /  17.2 °C 56.7 °F /  13.7 °C 30.26in /  1024.6hPa ESE 0.9mph /  1.4km/h 2.0mph /  3.2km/h 80% 0.00in /  0mm 26.0 W/m2
07:20 63.7 °F /  17.6 °C 57.0 °F /  13.9 °C 30.25in /  1024.3hPa Calm   1.0mph /  1.6km/h 79% 0.00in /  0mm 26.0 W/m2
07:25 64.0 °F /  17.8 °C 56.7 °F /  13.7 °C 30.26in /  1024.6hPa Calm   1.0mph /  1.6km/h 77% 0.00in /  0mm 28.0 W/m2
07:30 64.6 °F /  18.1 °C 56.8 °F /  13.8 °C 30.26in /  1024.6hPa NNE 2.0mph /  3.2km/h 3.0mph /  4.8km/h 76% 0.00in /  0mm 93.0 W/m2
07:35 65.1 °F /  18.4 °C 56.7 °F /  13.7 °C 30.26in /  1024.6hPa NE 2.0mph /  3.2km/h 3.0mph /  4.8km/h 74% 0.00in /  0mm 171.0 W/m2
07:40 66.0 °F /  18.9 °C 56.7 °F /  13.7 °C 30.26in /  1024.6hPa East 2.0mph /  3.2km/h 4.0mph /  6.4km/h 72% 0.00in /  0mm 334.0 W/m2
07:46 66.9 °F /  19.4 °C 56.8 °F /  13.8 °C 30.26in /  1024.6hPa NE 0.9mph /  1.4km/h 3.0mph /  4.8km/h 70% 0.00in /  0mm 357.0 W/m2
07:51 68.0 °F /  20 °C 57.4 °F /  14.1 °C 30.26in /  1024.6hPa NE 2.0mph /  3.2km/h 6.0mph /  9.7km/h 69% 0.00in /  0mm 381.0 W/m2
08:01 69.4 °F /  20.8 °C 57.6 °F /  14.2 °C 30.26in /  1024.6hPa East 2.0mph /  3.2km/h 2.0mph /  3.2km/h 66% 0.00in /  0mm 425.0 W/m2
08:06 70.2 °F /  21.2 °C 57.4 °F /  14.1 °C 30.25in /  1024.3hPa North 0.9mph /  1.4km/h 4.0mph /  6.4km/h 64% 0.00in /  0mm 446.0 W/m2
08:11 71.1 °F /  21.7 °C 57.4 °F /  14.1 °C 30.25in /  1024.3hPa SE 2.0mph /  3.2km/h 4.0mph /  6.4km/h 62% 0.00in /  0mm 455.0 W/m2
08:16 71.8 °F /  22.1 °C 57.6 °F /  14.2 °C 30.25in /  1024.3hPa NNE 2.0mph /  3.2km/h 4.0mph /  6.4km/h 61% 0.00in /  0mm 483.0 W/m2
08:21 72.3 °F /  22.4 °C 57.7 °F /  14.3 °C 30.25in /  1024.3hPa East 6.0mph /  9.7km/h 6.0mph /  9.7km/h 60% 0.00in /  0mm 504.0 W/m2
08:26 72.9 °F /  22.7 °C 57.2 °F /  14 °C 30.25in /  1024.3hPa North 4.9mph /  7.9km/h 6.0mph /  9.7km/h 58% 0.00in /  0mm 520.0 W/m2
08:31 73.0 °F /  22.8 °C 57.4 °F /  14.1 °C 30.25in /  1024.3hPa NE 2.0mph /  3.2km/h 3.0mph /  4.8km/h 58% 0.00in /  0mm 543.0 W/m2
08:52 74.5 °F /  23.6 °C 56.7 °F /  13.7 °C 30.24in /  1023.9hPa Calm   1.0mph /  1.6km/h 54% 0.00in /  0mm 617.0 W/m2
08:57 74.7 °F /  23.7 °C 56.8 °F /  13.8 °C 30.24in /  1023.9hPa NNE 2.0mph /  3.2km/h 6.0mph /  9.7km/h 54% 0.00in /  0mm 635.0 W/m2
09:02 75.0 °F /  23.9 °C 56.7 °F /  13.7 °C 30.24in /  1023.9hPa Calm   6.0mph /  9.7km/h 53% 0.00in /  0mm 654.0 W/m2
09:08 75.6 °F /  24.2 °C 56.1 °F /  13.4 °C 30.24in /  1023.9hPa ESE 4.0mph /  6.4km/h 7.0mph /  11.3km/h 51% 0.00in /  0mm 677.0 W/m2
09:13 75.7 °F /  24.3 °C 56.3 °F /  13.5 °C 30.24in /  1023.9hPa East 4.9mph /  7.9km/h 6.0mph /  9.7km/h 51% 0.00in /  0mm 693.0 W/m2
09:18 76.1 °F /  24.5 °C 56.1 °F /  13.4 °C 30.24in /  1023.9hPa ENE 2.9mph /  4.7km/h 5.0mph /  8km/h 50% 0.00in /  0mm 710.0 W/m2
09:24 76.5 °F /  24.7 °C 55.4 °F /  13 °C 30.24in /  1023.9hPa NE 2.0mph /  3.2km/h 6.0mph /  9.7km/h 48% 0.00in /  0mm 719.0 W/m2
09:29 77.0 °F /  25 °C 55.2 °F /  12.9 °C 30.24in /  1023.9hPa ENE 2.9mph /  4.7km/h 6.0mph /  9.7km/h 47% 0.00in /  0mm 744.0 W/m2
09:34 77.2 °F /  25.1 °C 54.9 °F /  12.7 °C 30.24in /  1023.9hPa East 0.9mph /  1.4km/h 3.0mph /  4.8km/h 46% 0.00in /  0mm 758.0 W/m2
09:39 77.4 °F /  25.2 °C 53.1 °F /  11.7 °C 30.24in /  1023.9hPa ENE 2.0mph /  3.2km/h 8.0mph /  12.9km/h 43% 0.00in /  0mm 772.0 W/m2
09:44 77.5 °F /  25.3 °C 55.0 °F /  12.8 °C 30.24in /  1023.9hPa NNE 4.0mph /  6.4km/h 9.0mph /  14.5km/h 46% 0.00in /  0mm 791.0 W/m2
09:54 78.6 °F /  25.9 °C 54.3 °F /  12.4 °C 30.24in /  1023.9hPa South 0.9mph /  1.4km/h 4.0mph /  6.4km/h 43% 0.00in /  0mm 819.0 W/m2
10:04 79.0 °F /  26.1 °C 52.0 °F /  11.1 °C 30.23in /  1023.6hPa SSE 2.9mph /  4.7km/h 6.0mph /  9.7km/h 39% 0.00in /  0mm 849.0 W/m2
10:10 79.2 °F /  26.2 °C 52.2 °F /  11.2 °C 30.24in /  1023.9hPa North 2.9mph /  4.7km/h 4.0mph /  6.4km/h 39% 0.00in /  0mm 860.0 W/m2
10:20 80.2 °F /  26.8 °C 52.3 °F /  11.3 °C 30.23in /  1023.6hPa Calm   7.0mph /  11.3km/h 38% 0.00in /  0mm 889.0 W/m2
10:25 80.6 °F /  27 °C 52.7 °F /  11.5 °C 30.23in /  1023.6hPa ENE 6.9mph /  11.1km/h 7.0mph /  11.3km/h 38% 0.00in /  0mm 905.0 W/m2
10:30 80.8 °F /  27.1 °C 52.9 °F /  11.6 °C 30.23in /  1023.6hPa SE 0.9mph /  1.4km/h 5.0mph /  8km/h 38% 0.00in /  0mm 944.0 W/m2
10:35 81.0 °F /  27.2 °C 52.2 °F /  11.2 °C 30.23in /  1023.6hPa ENE 2.0mph /  3.2km/h 4.0mph /  6.4km/h 37% 0.00in /  0mm 995.0 W/m2
10:40 80.8 °F /  27.1 °C 51.3 °F /  10.7 °C 30.23in /  1023.6hPa NNE 2.9mph /  4.7km/h 10.0mph /  16.1km/h 36% 0.00in /  0mm 990.0 W/m2
10:45 81.1 °F /  27.3 °C 50.9 °F /  10.5 °C 30.22in /  1023.2hPa East 6.0mph /  9.7km/h 8.0mph /  12.9km/h 35% 0.00in /  0mm 171.0 W/m2
10:50 81.0 °F /  27.2 °C 52.2 °F /  11.2 °C 30.22in /  1023.2hPa ESE 6.9mph /  11.1km/h 9.0mph /  14.5km/h 37% 0.00in /  0mm 1037.0 W/m2
10:55 81.7 °F /  27.6 °C 51.4 °F /  10.8 °C 30.22in /  1023.2hPa East 2.0mph /  3.2km/h 10.0mph /  16.1km/h 35% 0.00in /  0mm 1018.0 W/m2
11:00 82.2 °F /  27.9 °C 50.2 °F /  10.1 °C 30.22in /  1023.2hPa NE 2.9mph /  4.7km/h 8.0mph /  12.9km/h 33% 0.00in /  0mm 1150.0 W/m2
11:07 82.2 °F /  27.9 °C 50.2 °F /  10.1 °C 30.22in /  1023.2hPa ENE 6.9mph /  11.1km/h 7.0mph /  11.3km/h 33% 0.00in /  0mm 200.0 W/m2
11:17 82.0 °F /  27.8 °C 50.2 °F /  10.1 °C 30.22in /  1023.2hPa SE 6.0mph /  9.7km/h 10.0mph /  16.1km/h 33% 0.00in /  0mm 1137.0 W/m2
11:27 81.1 °F /  27.3 °C 47.7 °F /  8.7 °C 30.22in /  1023.2hPa SE 0.9mph /  1.4km/h 9.0mph /  14.5km/h 31% 0.00in /  0mm 1125.0 W/m2
11:42 82.8 °F /  28.2 °C 48.2 °F /  9 °C 30.22in /  1023.2hPa Calm   13.0mph /  20.9km/h 30% 0.00in /  0mm 1049.0 W/m2
11:48 83.1 °F /  28.4 °C 47.7 °F /  8.7 °C 30.21in /  1022.9hPa ESE 8.9mph /  14.3km/h 13.0mph /  20.9km/h 29% 0.00in /  0mm 1065.0 W/m2
11:53 83.5 °F /  28.6 °C 47.8 °F /  8.8 °C 30.21in /  1022.9hPa ESE 6.0mph /  9.7km/h 10.0mph /  16.1km/h 29% 0.00in /  0mm 1071.0 W/m2
11:58 83.8 °F /  28.8 °C 47.3 °F /  8.5 °C 30.21in /  1022.9hPa SSE 4.0mph /  6.4km/h 9.0mph /  14.5km/h 28% 0.00in /  0mm 1069.0 W/m2
12:03 84.0 °F /  28.9 °C 47.5 °F /  8.6 °C 30.21in /  1022.9hPa East 2.9mph /  4.7km/h 7.0mph /  11.3km/h 28% 0.00in /  0mm 1090.0 W/m2
12:08 84.6 °F /  29.2 °C 46.9 °F /  8.3 °C 30.20in /  1022.6hPa SSE 2.9mph /  4.7km/h 10.0mph /  16.1km/h 27% 0.00in /  0mm 1102.0 W/m2
12:19 84.9 °F /  29.4 °C 45.1 °F /  7.3 °C 30.20in /  1022.6hPa East 0.9mph /  1.4km/h 13.0mph /  20.9km/h 25% 0.00in /  0mm 1211.0 W/m2
12:24 85.3 °F /  29.6 °C 47.5 °F /  8.6 °C 30.20in /  1022.6hPa ENE 6.0mph /  9.7km/h 10.0mph /  16.1km/h 27% 0.00in /  0mm 1197.0 W/m2
12:29 85.3 °F /  29.6 °C 46.6 °F /  8.1 °C 30.20in /  1022.6hPa SE 6.9mph /  11.1km/h 10.0mph /  16.1km/h 26% 0.00in /  0mm 211.0 W/m2
12:34 84.6 °F /  29.2 °C 47.8 °F /  8.8 °C 30.20in /  1022.6hPa East 6.9mph /  11.1km/h 10.0mph /  16.1km/h 28% 0.00in /  0mm 195.0 W/m2
12:45 84.9 °F /  29.4 °C 46.2 °F /  7.9 °C 30.20in /  1022.6hPa SE 6.0mph /  9.7km/h 12.0mph /  19.3km/h 26% 0.00in /  0mm 1130.0 W/m2
12:50 84.9 °F /  29.4 °C 46.2 °F /  7.9 °C 30.19in /  1022.2hPa NNE 6.9mph /  11.1km/h 10.0mph /  16.1km/h 26% 0.00in /  0mm 234.0 W/m2
12:56 84.4 °F /  29.1 °C 47.7 °F /  8.7 °C 30.19in /  1022.2hPa East 6.0mph /  9.7km/h 13.0mph /  20.9km/h 28% 0.00in /  0mm 211.0 W/m2
13:01 84.0 °F /  28.9 °C 46.4 °F /  8 °C 30.19in /  1022.2hPa SE 4.9mph /  7.9km/h 13.0mph /  20.9km/h 27% 0.00in /  0mm 1165.0 W/m2
13:12 84.4 °F /  29.1 °C 47.7 °F /  8.7 °C 30.19in /  1022.2hPa SE 8.1mph /  13km/h 9.0mph /  14.5km/h 28% 0.00in /  0mm 1100.0 W/m2
13:22 85.8 °F /  29.9 °C 45.9 °F /  7.7 °C 30.19in /  1022.2hPa NNE 2.9mph /  4.7km/h 13.0mph /  20.9km/h 25% 0.00in /  0mm 1097.0 W/m2
13:27 86.5 °F /  30.3 °C 46.6 °F /  8.1 °C 30.18in /  1021.9hPa SSE 4.0mph /  6.4km/h 10.0mph /  16.1km/h 25% 0.00in /  0mm 1065.0 W/m2
13:34 86.5 °F /  30.3 °C 47.7 °F /  8.7 °C 30.18in /  1021.9hPa East 8.1mph /  13km/h 11.0mph /  17.7km/h 26% 0.00in /  0mm 1129.0 W/m2
13:40 86.7 °F /  30.4 °C 46.8 °F /  8.2 °C 30.18in /  1021.9hPa ESE 2.0mph /  3.2km/h 8.0mph /  12.9km/h 25% 0.00in /  0mm 1171.0 W/m2
13:45 86.7 °F /  30.4 °C 47.7 °F /  8.7 °C 30.17in /  1021.6hPa SE 6.0mph /  9.7km/h 9.0mph /  14.5km/h 26% 0.00in /  0mm 190.0 W/m2
13:50 86.7 °F /  30.4 °C 45.7 °F /  7.6 °C 30.18in /  1021.9hPa NE 4.0mph /  6.4km/h 12.0mph /  19.3km/h 24% 0.00in /  0mm 1146.0 W/m2
13:55 87.1 °F /  30.6 °C 46.9 °F /  8.3 °C 30.17in /  1021.6hPa East 4.0mph /  6.4km/h 10.0mph /  16.1km/h 25% 0.00in /  0mm 1202.0 W/m2
14:01 87.1 °F /  30.6 °C 46.9 °F /  8.3 °C 30.17in /  1021.6hPa NE 6.0mph /  9.7km/h 9.0mph /  14.5km/h 25% 0.00in /  0mm 153.0 W/m2
14:06 86.4 °F /  30.2 °C 47.5 °F /  8.6 °C 30.17in /  1021.6hPa ESE 2.0mph /  3.2km/h 7.0mph /  11.3km/h 26% 0.00in /  0mm 163.0 W/m2
14:11 86.5 °F /  30.3 °C 46.6 °F /  8.1 °C 30.17in /  1021.6hPa East 0.9mph /  1.4km/h 5.0mph /  8km/h 25% 0.00in /  0mm 306.0 W/m2
14:17 86.7 °F /  30.4 °C 46.8 °F /  8.2 °C 30.17in /  1021.6hPa ENE 0.9mph /  1.4km/h 9.0mph /  14.5km/h 25% 0.00in /  0mm 306.0 W/m2
14:22 86.4 °F /  30.2 °C 47.5 °F /  8.6 °C 30.17in /  1021.6hPa ESE 2.9mph /  4.7km/h 7.0mph /  11.3km/h 26% 0.00in /  0mm 267.0 W/m2
14:33 86.4 °F /  30.2 °C 46.4 °F /  8 °C 30.16in /  1021.2hPa South 0.9mph /  1.4km/h 10.0mph /  16.1km/h 25% 0.00in /  0mm 933.0 W/m2
14:44 87.1 °F /  30.6 °C 46.9 °F /  8.3 °C 30.16in /  1021.2hPa ENE 8.9mph /  14.3km/h 10.0mph /  16.1km/h 25% 0.00in /  0mm 1171.0 W/m2
14:49 87.3 °F /  30.7 °C 46.0 °F /  7.8 °C 30.15in /  1020.9hPa SSE 2.9mph /  4.7km/h 11.0mph /  17.7km/h 24% 0.00in /  0mm 234.0 W/m2
14:55 87.1 °F /  30.6 °C 45.9 °F /  7.7 °C 30.15in /  1020.9hPa NE 4.9mph /  7.9km/h 5.0mph /  8km/h 24% 0.00in /  0mm 1027.0 W/m2
15:00 87.6 °F /  30.9 °C 47.5 °F /  8.6 °C 30.15in /  1020.9hPa ENE 6.9mph /  11.1km/h 7.0mph /  11.3km/h 25% 0.00in /  0mm 1106.0 W/m2
15:05 88.0 °F /  31.1 °C 46.6 °F /  8.1 °C 30.15in /  1020.9hPa NNE 4.9mph /  7.9km/h 10.0mph /  16.1km/h 24% 0.00in /  0mm 287.0 W/m2
15:21 86.0 °F /  30 °C 47.1 °F /  8.4 °C 30.15in /  1020.9hPa NE 4.9mph /  7.9km/h 7.0mph /  11.3km/h 26% 0.00in /  0mm 230.0 W/m2
15:26 85.5 °F /  29.7 °C 46.6 °F /  8.1 °C 30.15in /  1020.9hPa ENE 2.0mph /  3.2km/h 7.0mph /  11.3km/h 26% 0.00in /  0mm 260.0 W/m2
15:31 85.3 °F /  29.6 °C 46.6 °F /  8.1 °C 30.15in /  1020.9hPa NNE 4.0mph /  6.4km/h 7.0mph /  11.3km/h 26% 0.00in /  0mm 248.0 W/m2
15:37 85.3 °F /  29.6 °C 45.5 °F /  7.5 °C 30.15in /  1020.9hPa East 4.0mph /  6.4km/h 9.0mph /  14.5km/h 25% 0.00in /  0mm 287.0 W/m2
15:42 85.1 °F /  29.5 °C 44.2 °F /  6.8 °C 30.15in /  1020.9hPa SSE 2.9mph /  4.7km/h 9.0mph /  14.5km/h 24% 0.00in /  0mm 373.0 W/m2
15:47 84.9 °F /  29.4 °C 45.1 °F /  7.3 °C 30.14in /  1020.5hPa SE 2.9mph /  4.7km/h 9.0mph /  14.5km/h 25% 0.00in /  0mm 373.0 W/m2
15:58 85.3 °F /  29.6 °C 46.6 °F /  8.1 °C 30.14in /  1020.5hPa NE 0.9mph /  1.4km/h 7.0mph /  11.3km/h 26% 0.00in /  0mm 156.0 W/m2
16:03 84.9 °F /  29.4 °C 46.2 °F /  7.9 °C 30.14in /  1020.5hPa SE 2.0mph /  3.2km/h 13.0mph /  20.9km/h 26% 0.00in /  0mm 174.0 W/m2
16:08 84.6 °F /  29.2 °C 45.9 °F /  7.7 °C 30.14in /  1020.5hPa ENE 2.0mph /  3.2km/h 8.0mph /  12.9km/h 26% 0.00in /  0mm 214.0 W/m2
16:13 84.4 °F /  29.1 °C 44.8 °F /  7.1 °C 30.14in /  1020.5hPa NE 0.9mph /  1.4km/h 13.0mph /  20.9km/h 25% 0.00in /  0mm 234.0 W/m2
16:18 84.4 °F /  29.1 °C 44.8 °F /  7.1 °C 30.14in /  1020.5hPa Calm   6.0mph /  9.7km/h 25% 0.00in /  0mm 243.0 W/m2
16:23 84.4 °F /  29.1 °C 44.8 °F /  7.1 °C 30.14in /  1020.5hPa ENE 0.9mph /  1.4km/h 7.0mph /  11.3km/h 25% 0.00in /  0mm 265.0 W/m2
16:28 84.6 °F /  29.2 °C 45.0 °F /  7.2 °C 30.14in /  1020.5hPa North 0.9mph /  1.4km/h 7.0mph /  11.3km/h 25% 0.00in /  0mm 295.0 W/m2
16:39 85.5 °F /  29.7 °C 45.7 °F /  7.6 °C 30.13in /  1020.2hPa North 0.9mph /  1.4km/h 6.0mph /  9.7km/h 25% 0.00in /  0mm 650.0 W/m2
16:44 85.8 °F /  29.9 °C 44.8 °F /  7.1 °C 30.13in /  1020.2hPa ESE 2.9mph /  4.7km/h 3.0mph /  4.8km/h 24% 0.00in /  0mm 348.0 W/m2
16:50 86.4 °F /  30.2 °C 44.2 °F /  6.8 °C 30.13in /  1020.2hPa SE 2.0mph /  3.2km/h 7.0mph /  11.3km/h 23% 0.00in /  0mm 701.0 W/m2
17:00 88.0 °F /  31.1 °C 45.5 °F /  7.5 °C 30.12in /  1019.9hPa NNE 4.0mph /  6.4km/h 11.0mph /  17.7km/h 23% 0.00in /  0mm 244.0 W/m2
17:06 88.0 °F /  31.1 °C 45.5 °F /  7.5 °C 30.12in /  1019.9hPa NE 6.9mph /  11.1km/h 9.0mph /  14.5km/h 23% 0.00in /  0mm 599.0 W/m2
17:11 88.0 °F /  31.1 °C 45.5 °F /  7.5 °C 30.12in /  1019.9hPa ESE 4.9mph /  7.9km/h 10.0mph /  16.1km/h 23% 0.00in /  0mm 519.0 W/m2
17:17 87.1 °F /  30.6 °C 45.9 °F /  7.7 °C 30.12in /  1019.9hPa East 2.0mph /  3.2km/h 10.0mph /  16.1km/h 24% 0.00in /  0mm 77.0 W/m2
17:27 85.6 °F /  29.8 °C 44.8 °F /  7.1 °C 30.12in /  1019.9hPa Calm   8.0mph /  12.9km/h 24% 0.00in /  0mm 69.0 W/m2
17:32 84.9 °F /  29.4 °C 45.1 °F /  7.3 °C 30.12in /  1019.9hPa NE 4.0mph /  6.4km/h 8.0mph /  12.9km/h 25% 0.00in /  0mm 84.0 W/m2
17:43 85.1 °F /  29.5 °C 45.3 °F /  7.4 °C 30.12in /  1019.9hPa ENE 6.9mph /  11.1km/h 12.0mph /  19.3km/h 25% 0.00in /  0mm 338.0 W/m2
17:48 85.6 °F /  29.8 °C 44.8 °F /  7.1 °C 30.12in /  1019.9hPa SE 6.9mph /  11.1km/h 8.0mph /  12.9km/h 24% 0.00in /  0mm 353.0 W/m2
17:53 86.2 °F /  30.1 °C 46.2 °F /  7.9 °C 30.12in /  1019.9hPa NE 4.0mph /  6.4km/h 8.0mph /  12.9km/h 25% 0.00in /  0mm 318.0 W/m2
17:58 86.2 °F /  30.1 °C 45.1 °F /  7.3 °C 30.12in /  1019.9hPa NE 4.0mph /  6.4km/h 10.0mph /  16.1km/h 24% 0.00in /  0mm 281.0 W/m2
18:03 85.6 °F /  29.8 °C 45.9 °F /  7.7 °C 30.12in /  1019.9hPa SE 2.0mph /  3.2km/h 4.0mph /  6.4km/h 25% 0.00in /  0mm 264.0 W/m2
18:08 85.1 °F /  29.5 °C 45.3 °F /  7.4 °C 30.12in /  1019.9hPa East 12.1mph /  19.5km/h 13.0mph /  20.9km/h 25% 0.00in /  0mm 33.0 W/m2
18:13 83.8 °F /  28.8 °C 45.3 °F /  7.4 °C 30.12in /  1019.9hPa East 2.9mph /  4.7km/h 7.0mph /  11.3km/h 26% 0.00in /  0mm 83.0 W/m2
18:19 82.9 °F /  28.3 °C 45.5 °F /  7.5 °C 30.13in /  1020.2hPa SE 2.0mph /  3.2km/h 7.0mph /  11.3km/h 27% 0.00in /  0mm 33.0 W/m2
18:24 82.8 °F /  28.2 °C 45.3 °F /  7.4 °C 30.13in /  1020.2hPa ESE 2.9mph /  4.7km/h 5.0mph /  8km/h 27% 0.00in /  0mm 37.0 W/m2
18:29 82.6 °F /  28.1 °C 45.1 °F /  7.3 °C 30.13in /  1020.2hPa Calm   4.0mph /  6.4km/h 27% 0.00in /  0mm 123.0 W/m2
18:39 82.6 °F /  28.1 °C 44.2 °F /  6.8 °C 30.13in /  1020.2hPa SE 2.9mph /  4.7km/h 4.0mph /  6.4km/h 26% 0.00in /  0mm 32.0 W/m2
18:44 82.2 °F /  27.9 °C 43.9 °F /  6.6 °C 30.13in /  1020.2hPa SE 2.9mph /  4.7km/h 6.0mph /  9.7km/h 26% 0.00in /  0mm 30.0 W/m2
18:50 82.2 °F /  27.9 °C 43.9 °F /  6.6 °C 30.13in /  1020.2hPa NE 2.0mph /  3.2km/h 5.0mph /  8km/h 26% 0.00in /  0mm 26.0 W/m2
18:55 82.2 °F /  27.9 °C 43.9 °F /  6.6 °C 30.14in /  1020.5hPa Calm   3.0mph /  4.8km/h 26% 0.00in /  0mm 18.0 W/m2
19:00 81.9 °F /  27.7 °C 43.7 °F /  6.5 °C 30.14in /  1020.5hPa Calm   7.0mph /  11.3km/h 26% 0.00in /  0mm 14.0 W/m2
19:05 81.7 °F /  27.6 °C 43.5 °F /  6.4 °C 30.14in /  1020.5hPa SE 2.0mph /  3.2km/h 4.0mph /  6.4km/h 26% 0.00in /  0mm 11.0 W/m2
19:10 81.3 °F /  27.4 °C 44.1 °F /  6.7 °C 30.14in /  1020.5hPa Calm   4.0mph /  6.4km/h 27% 0.00in /  0mm 9.0 W/m2
19:15 81.1 °F /  27.3 °C 44.1 °F /  6.7 °C 30.14in /  1020.5hPa Calm   4.0mph /  6.4km/h 27% 0.00in /  0mm 7.0 W/m2
19:25 80.6 °F /  27 °C 44.4 °F /  6.9 °C 30.14in /  1020.5hPa Calm   1.0mph /  1.6km/h 28% 0.00in /  0mm 0.0 W/m2
19:30 80.2 °F /  26.8 °C 45.1 °F /  7.3 °C 30.14in /  1020.5hPa Calm   3.0mph /  4.8km/h 29% 0.00in /  0mm 0.0 W/m2
19:35 80.1 °F /  26.7 °C 45.0 °F /  7.2 °C 30.14in /  1020.5hPa Calm   2.0mph /  3.2km/h 29% 0.00in /  0mm 0.0 W/m2
19:40 79.5 °F /  26.4 °C 45.3 °F /  7.4 °C 30.15in /  1020.9hPa Calm   1.0mph /  1.6km/h 30% 0.00in /  0mm 0.0 W/m2
19:51 79.0 °F /  26.1 °C 45.7 °F /  7.6 °C 30.15in /  1020.9hPa Calm     31% 0.00in /  0mm 0.0 W/m2
20:01 78.3 °F /  25.7 °C 46.0 °F /  7.8 °C 30.15in /  1020.9hPa Calm     32% 0.00in /  0mm 0.0 W/m2
20:06 77.7 °F /  25.4 °C 46.4 °F /  8 °C 30.16in /  1021.2hPa Calm     33% 0.00in /  0mm 0.0 W/m2
20:11 77.4 °F /  25.2 °C 46.0 °F /  7.8 °C 30.16in /  1021.2hPa Calm     33% 0.00in /  0mm 0.0 W/m2
20:16 77.0 °F /  25 °C 46.4 °F /  8 °C 30.16in /  1021.2hPa Calm   1.0mph /  1.6km/h 34% 0.00in /  0mm 0.0 W/m2
20:26 76.3 °F /  24.6 °C 46.6 °F /  8.1 °C 30.16in /  1021.2hPa Calm     35% 0.00in /  0mm 0.0 W/m2
20:36 75.6 °F /  24.2 °C 46.8 °F /  8.2 °C 30.17in /  1021.6hPa East 0.9mph /  1.4km/h 1.0mph /  1.6km/h 36% 0.00in /  0mm 0.0 W/m2
20:42 75.4 °F /  24.1 °C 47.3 °F /  8.5 °C 30.17in /  1021.6hPa Calm   1.0mph /  1.6km/h 37% 0.00in /  0mm 0.0 W/m2
20:47 74.8 °F /  23.8 °C 46.8 °F /  8.2 °C 30.17in /  1021.6hPa East 0.9mph /  1.4km/h 1.0mph /  1.6km/h 37% 0.00in /  0mm 0.0 W/m2
20:52 74.7 °F /  23.7 °C 46.6 °F /  8.1 °C 30.17in /  1021.6hPa Calm   3.0mph /  4.8km/h 37% 0.00in /  0mm 0.0 W/m2
20:57 74.3 °F /  23.5 °C 47.1 °F /  8.4 °C 30.17in /  1021.6hPa Calm   2.0mph /  3.2km/h 38% 0.00in /  0mm 0.0 W/m2
21:12 73.8 °F /  23.2 °C 48.0 °F /  8.9 °C 30.18in /  1021.9hPa East 2.0mph /  3.2km/h 3.0mph /  4.8km/h 40% 0.00in /  0mm 0.0 W/m2
21:23 73.6 °F /  23.1 °C 48.4 °F /  9.1 °C 30.19in /  1022.2hPa South 10.1mph /  16.3km/h 10.1mph /  16.3km/h 41% 0.00in /  0mm 0.0 W/m2
21:28 73.9 °F /  23.3 °C 48.7 °F /  9.3 °C 30.19in /  1022.2hPa South 6.0mph /  9.7km/h 10.0mph /  16.1km/h 41% 0.00in /  0mm 0.0 W/m2
21:38 74.5 °F /  23.6 °C 49.3 °F /  9.6 °C 30.20in /  1022.6hPa SSE 6.9mph /  11.1km/h 14.0mph /  22.5km/h 41% 0.00in /  0mm 0.0 W/m2
21:43 74.7 °F /  23.7 °C 49.5 °F /  9.7 °C 30.20in /  1022.6hPa SSE 6.0mph /  9.7km/h 9.0mph /  14.5km/h 41% 0.00in /  0mm 0.0 W/m2
21:48 74.7 °F /  23.7 °C 49.5 °F /  9.7 °C 30.20in /  1022.6hPa East 6.9mph /  11.1km/h 15.0mph /  24.1km/h 41% 0.00in /  0mm 0.0 W/m2
21:53 74.7 °F /  23.7 °C 49.5 °F /  9.7 °C 30.20in /  1022.6hPa SSE 4.9mph /  7.9km/h 11.0mph /  17.7km/h 41% 0.00in /  0mm 0.0 W/m2
21:58 74.7 °F /  23.7 °C 49.5 °F /  9.7 °C 30.20in /  1022.6hPa SE 4.9mph /  7.9km/h 10.0mph /  16.1km/h 41% 0.00in /  0mm 0.0 W/m2
22:04 74.7 °F /  23.7 °C 49.5 °F /  9.7 °C 30.20in /  1022.6hPa SE 6.0mph /  9.7km/h 12.0mph /  19.3km/h 41% 0.00in /  0mm 0.0 W/m2
22:09 74.7 °F /  23.7 °C 49.5 °F /  9.7 °C 30.20in /  1022.6hPa Calm   13.0mph /  20.9km/h 41% 0.00in /  0mm 0.0 W/m2
22:14 74.7 °F /  23.7 °C 48.0 °F /  8.9 °C 30.21in /  1022.9hPa SSE 6.0mph /  9.7km/h 18.0mph /  29km/h 39% 0.00in /  0mm 0.0 W/m2
22:19 74.8 °F /  23.8 °C 48.2 °F /  9 °C 30.21in /  1022.9hPa SE 6.0mph /  9.7km/h 13.0mph /  20.9km/h 39% 0.00in /  0mm 0.0 W/m2
22:29 74.8 °F /  23.8 °C 48.2 °F /  9 °C 30.21in /  1022.9hPa SSE 6.0mph /  9.7km/h 6.0mph /  9.7km/h 39% 0.00in /  0mm 0.0 W/m2
22:34 74.8 °F /  23.8 °C 47.5 °F /  8.6 °C 30.21in /  1022.9hPa ESE 2.9mph /  4.7km/h 8.0mph /  12.9km/h 38% 0.00in /  0mm 0.0 W/m2
22:40 74.8 °F /  23.8 °C 47.5 °F /  8.6 °C 30.21in /  1022.9hPa SE 2.0mph /  3.2km/h 8.0mph /  12.9km/h 38% 0.00in /  0mm 0.0 W/m2
22:50 74.8 °F /  23.8 °C 47.5 °F /  8.6 °C 30.21in /  1022.9hPa SSE 2.9mph /  4.7km/h 6.0mph /  9.7km/h 38% 0.00in /  0mm 0.0 W/m2
22:56 74.8 °F /  23.8 °C 46.8 °F /  8.2 °C 30.22in /  1023.2hPa SE 2.9mph /  4.7km/h 5.0mph /  8km/h 37% 0.00in /  0mm 0.0 W/m2
23:01 75.0 °F /  23.9 °C 47.7 °F /  8.7 °C 30.22in /  1023.2hPa SSE 2.0mph /  3.2km/h 9.0mph /  14.5km/h 38% 0.00in /  0mm 0.0 W/m2
23:06 74.8 °F /  23.8 °C 47.5 °F /  8.6 °C 30.22in /  1023.2hPa SSE 0.9mph /  1.4km/h 5.0mph /  8km/h 38% 0.00in /  0mm 0.0 W/m2
23:11 74.7 °F /  23.7 °C 46.6 °F /  8.1 °C 30.22in /  1023.2hPa SE 2.0mph /  3.2km/h 11.0mph /  17.7km/h 37% 0.00in /  0mm 0.0 W/m2
23:31 74.5 °F /  23.6 °C 46.6 °F /  8.1 °C 30.22in /  1023.2hPa Calm   3.0mph /  4.8km/h 37% 0.00in /  0mm 0.0 W/m2
23:36 74.3 °F /  23.5 °C 46.4 °F /  8 °C 30.22in /  1023.2hPa ESE 2.0mph /  3.2km/h 6.0mph /  9.7km/h 37% 0.00in /  0mm 0.0 W/m2
23:41 74.3 °F /  23.5 °C 46.4 °F /  8 °C 30.22in /  1023.2hPa SE 2.0mph /  3.2km/h 5.0mph /  8km/h 37% 0.00in /  0mm 0.0 W/m2
23:46 74.1 °F /  23.4 °C 46.2 °F /  7.9 °C 30.22in /  1023.2hPa Calm   2.0mph /  3.2km/h 37% 0.00in /  0mm 0.0 W/m2
23:52 74.1 °F /  23.4 °C 46.9 °F /  8.3 °C 30.22in /  1023.2hPa SE 2.0mph /  3.2km/h 5.0mph /  8km/h 38% 0.00in /  0mm 0.0 W/m2
23:57 73.9 °F /  23.3 °C 46.8 °F /  8.2 °C 30.22in /  1023.2hPa SE 0.9mph /  1.4km/h 6.0mph /  9.7km/h 38% 0.00in /  0mm 0.0 W/m2
Olympia, Windhoek, Namibia
Compliments of Weather Underground - 3 mb